Sao Raimundo das Mangabeiras, Brazil
Current Conditions -  °F | °C
As of 2:10 PM on Tuesday 21 Oct 2014 (Local Time) from SBIZ Reporting Station
Moderate Rain Moderate Rain  
Wind Chill: 77°   Ceiling: 2000
Heat Index: 78°   Visibility: 1.8mi
Dew Point: 73°   Wind: 3mph
Humidity: 89%   Direction: 260°W
Pressure: 29.85"   Gusts: NA
Location:  7.02°S, 45.48°W
Report Text: SBIZ 211710Z 26003KT 3000 RA BKN020 25/23 Q1011
Loading
Personal Weather Stations






























Interactive Weather Map
Tropical Storm Tracking
New forecast layout! Learn more

10-Day Weather Forecast

Advertisements
Track Severe Weather on mobile